Time;durP1;ratioP1;P1;durP2;ratioP2;P2;SDS_P1;SDS_P2;PMS_P1;PMS_P2;Temp;Humidity;BMP_temperature;BMP_pressure;BME280_temperature;BME280_humidity;BME280_pressure;Samples;Min_cycle;Max_cycle;Signal;HPM_P1;HPM_P2
2023/04/01 00:00:34;;;;;;;3.47;2.10;;;9.90;99.90;;;9.26;90.21;98900.22;5014168;28;20207;-73
2023/04/01 00:03:06;;;;;;;5.50;2.00;;;9.90;99.90;;;9.25;90.22;98894.06;5016879;28;20202;-73
2023/04/01 00:05:38;;;;;;;5.90;2.23;;;9.90;99.90;;;9.25;90.08;98904.75;5016466;28;20235;-73
2023/04/01 00:08:12;;;;;;;4.00;2.30;;;9.90;99.90;;;9.25;90.18;98904.75;5016785;28;20199;-73
2023/04/01 00:10:44;;;;;;;5.43;2.17;;;9.90;99.90;;;9.24;90.24;98908.47;5016751;28;20204;-73
2023/04/01 00:13:17;;;;;;;5.17;2.30;;;9.90;99.90;;;9.25;89.81;98901.25;5016943;28;20196;-73
2023/04/01 00:15:51;;;;;;;7.33;2.43;;;9.90;99.90;;;9.24;89.99;98897.78;5016534;28;20219;-72
2023/04/01 00:18:24;;;;;;;4.57;2.47;;;9.90;99.90;;;9.25;89.80;98898.56;5016297;28;20746;-73
2023/04/01 00:20:56;;;;;;;4.90;2.17;;;9.90;99.90;;;9.25;89.79;98898.56;5016665;28;20215;-73
2023/04/01 00:23:29;;;;;;;8.17;2.27;;;9.90;99.90;;;9.24;90.18;98899.63;5016489;28;20195;-73
2023/04/01 00:26:05;;;;;;;7.37;2.00;;;9.90;99.90;;;9.23;90.17;98898.78;5016382;28;20278;-73
2023/04/01 00:28:38;;;;;;;7.20;2.07;;;9.80;99.90;;;9.22;89.79;98889.13;5016376;28;20195;-73
2023/04/01 00:31:11;;;;;;;4.87;2.10;;;9.80;99.90;;;9.21;89.58;98898.19;5016350;28;20199;-73
2023/04/01 00:33:43;;;;;;;4.17;2.03;;;9.90;99.90;;;9.22;89.50;98897.13;5016419;28;20207;-73
2023/04/01 00:36:18;;;;;;;10.47;2.60;;;9.90;99.90;;;9.22;89.93;98899.81;5016169;28;20231;-73
2023/04/01 00:38:52;;;;;;;5.67;2.30;;;9.90;99.90;;;9.22;89.51;98894.47;5016075;28;20257;-73
2023/04/01 00:41:25;;;;;;;6.93;2.07;;;9.90;99.90;;;9.21;89.53;98898.19;5016318;28;20195;-73
2023/04/01 00:44:18;;;;;;;3.23;1.73;;;9.80;99.90;;;9.20;89.91;98896.50;5015793;28;20203;-73
2023/04/01 00:46:52;;;;;;;4.17;2.17;;;9.90;99.90;;;9.20;89.50;98885.84;5015974;28;20223;-73
2023/04/01 00:49:27;;;;;;;7.27;2.43;;;9.90;99.90;;;9.19;89.55;98894.84;5016165;28;20199;-73
2023/04/01 00:52:05;;;;;;;5.83;2.00;;;9.90;99.90;;;9.19;89.79;98905.53;5015956;28;20254;-73
2023/04/01 00:54:42;;;;;;;3.23;1.73;;;9.80;99.90;;;9.18;89.54;98901.22;5015916;28;20195;-73
2023/04/01 00:57:20;;;;;;;6.27;2.17;;;9.80;99.90;;;9.15;89.29;98896.25;5015789;28;20231;-73
2023/04/01 00:59:56;;;;;;;6.47;1.90;;;9.80;99.90;;;9.15;89.51;98905.09;5015704;28;20225;-73
2023/04/01 01:02:28;;;;;;;4.33;1.97;;;9.80;99.90;;;9.15;89.56;98906.94;5016345;28;20192;-73
2023/04/01 01:05:00;;;;;;;6.13;1.87;;;9.80;99.90;;;9.13;89.38;98906.31;5015635;28;20215;-73
2023/04/01 01:07:45;;;;;;;5.80;2.20;;;9.80;99.90;;;9.14;89.43;98913.31;5015742;28;20199;-73
2023/04/01 01:10:24;;;;;;;3.53;1.40;;;9.80;99.90;;;9.13;89.25;98906.31;5015869;28;20188;-73
2023/04/01 01:13:09;;;;;;;3.70;1.87;;;9.80;99.90;;;9.12;89.90;98899.31;5014748;28;20242;-73
2023/04/01 01:15:47;;;;;;;4.80;1.80;;;9.80;99.90;;;9.14;89.54;98902.66;5015134;28;20285;-73
2023/04/01 01:18:34;;;;;;;4.77;1.77;;;9.80;99.90;;;9.13;89.30;98903.66;5015410;28;20666;-73
2023/04/01 01:21:47;;;;;;;3.20;1.57;;;9.80;99.90;;;9.12;89.33;98904.66;5015363;28;20219;-73
2023/04/01 01:24:40;;;;;;;3.93;1.87;;;9.80;99.90;;;9.12;89.78;98899.31;5015589;28;20196;-73
2023/04/01 01:27:17;;;;;;;4.40;1.80;;;9.80;99.90;;;9.09;89.65;98899.72;5015288;28;20231;-73
2023/04/01 01:30:40;;;;;;;4.43;1.57;;;9.70;99.90;;;9.10;89.38;98896.03;5015300;28;20187;-73
2023/04/01 01:33:33;;;;;;;5.40;1.90;;;9.70;99.90;;;9.08;89.94;98901.56;4973940;28;20193;-73
2023/04/01 01:36:14;;;;;;;2.60;1.50;;;9.70;99.90;;;9.07;89.54;98897.25;5015031;28;20227;-73
2023/04/01 01:38:48;;;;;;;4.27;1.87;;;9.70;99.90;;;9.07;89.32;98899.94;5014755;28;20529;-73
2023/04/01 01:41:24;;;;;;;4.10;1.50;;;9.70;99.90;;;9.07;89.28;98902.59;5014988;28;20211;-73
2023/04/01 01:44:00;;;;;;;3.97;1.70;;;9.70;99.90;;;9.08;89.27;98900.72;5014965;28;20192;-73
2023/04/01 01:46:33;;;;;;;6.37;1.57;;;9.70;99.90;;;9.02;88.98;98901.53;5014868;28;20231;-73
2023/04/01 01:49:08;;;;;;;4.23;1.40;;;9.70;99.90;;;9.01;89.36;98907.88;5014556;28;20643;-73
2023/04/01 01:51:42;;;;;;;4.10;1.30;;;9.70;99.90;;;9.02;89.41;98905.03;5014912;28;20187;-73
2023/04/01 01:54:18;;;;;;;5.30;1.70;;;9.70;99.90;;;9.00;89.59;98907.06;5014832;28;20195;-73
2023/04/01 01:57:01;;;;;;;3.97;1.23;;;9.60;99.90;;;8.99;89.54;98899.25;5014641;28;20231;-73
2023/04/01 01:59:37;;;;;;;2.37;1.33;;;9.70;99.90;;;9.00;89.24;98899.06;5014676;28;20332;-73
2023/04/01 02:02:12;;;;;;;3.43;1.30;;;9.70;99.90;;;9.00;89.72;98901.72;5014660;28;20195;-72
2023/04/01 02:04:46;;;;;;;3.13;1.10;;;9.70;99.90;;;9.01;89.41;98902.53;5014472;28;20238;-72
2023/04/01 02:07:29;;;;;;;3.37;1.40;;;9.70;99.90;;;9.01;89.34;98910.53;5014486;28;20231;-72
2023/04/01 02:10:01;;;;;;;2.50;1.37;;;9.70;99.90;;;9.00;89.75;98900.91;5014594;28;20184;-73
2023/04/01 02:12:36;;;;;;;4.70;1.27;;;9.70;99.90;;;8.96;89.37;98904.97;5014539;28;20195;-73
2023/04/01 02:15:14;;;;;;;4.87;1.37;;;9.60;99.90;;;8.97;89.48;98906.63;5014377;28;20199;-73
2023/04/01 02:17:50;;;;;;;4.97;1.10;;;9.60;99.90;;;8.98;89.55;98905.59;5014518;28;20612;-72
2023/04/01 02:20:28;;;;;;;4.83;1.60;;;9.60;99.90;;;8.99;89.94;98907.25;5014256;28;20215;-73
2023/04/01 02:23:03;;;;;;;2.37;1.17;;;9.60;99.90;;;8.98;90.08;98910.94;5013774;28;20203;-74
2023/04/01 02:25:42;;;;;;;4.90;1.43;;;9.60;99.90;;;8.98;89.88;98906.41;5014260;28;20258;-74
2023/04/01 02:28:23;;;;;;;2.73;1.10;;;9.60;99.90;;;8.99;89.85;98901.91;5014047;28;20395;-74
2023/04/01 02:30:55;;;;;;;2.23;1.30;;;9.60;99.90;;;8.98;89.70;98908.25;5014294;28;20200;-73
2023/04/01 02:33:28;;;;;;;4.40;1.40;;;9.60;99.90;;;8.98;89.60;98908.25;5013926;28;20245;-73
2023/04/01 02:36:00;;;;;;;3.43;1.40;;;9.60;99.90;;;8.97;89.70;98906.63;5013652;28;20235;-74
2023/04/01 02:38:36;;;;;;;2.13;1.10;;;9.60;99.90;;;8.96;89.63;98907.66;5013967;28;20262;-73
2023/04/01 02:41:08;;;;;;;1.97;1.10;;;9.60;99.90;;;8.96;89.76;98915.66;5013730;28;20219;-62
2023/04/01 02:43:40;;;;;;;2.80;1.20;;;9.60;99.90;;;8.96;89.64;98916.47;5013508;28;20604;-77
2023/04/01 02:46:12;;;;;;;2.63;1.30;;;9.60;99.90;;;8.96;89.70;98912.97;5013114;28;20708;-76
2023/04/01 02:48:44;;;;;;;2.87;1.37;;;9.60;99.90;;;8.94;89.96;98913.16;5013932;28;20195;-76
2023/04/01 02:51:16;;;;;;;3.00;1.30;;;9.60;99.90;;;8.95;89.72;98914.00;5013884;28;20195;-76
2023/04/01 02:53:50;;;;;;;5.63;1.70;;;9.60;99.90;;;8.93;89.43;98916.88;5013925;28;20202;-76
2023/04/01 02:56:22;;;;;;;4.13;1.40;;;9.60;99.90;;;8.93;89.46;98914.19;5013848;28;20250;-76
2023/04/01 02:58:54;;;;;;;1.87;1.20;;;9.60;99.90;;;8.93;89.83;98916.88;5013861;28;20198;-76
2023/04/01 03:01:27;;;;;;;3.93;1.33;;;9.60;99.90;;;8.93;90.04;98926.72;5013751;28;20216;-76
2023/04/01 03:03:58;;;;;;;1.50;1.20;;;9.60;99.90;;;8.92;89.84;98922.38;5013503;28;20671;-76
2023/04/01 03:06:30;;;;;;;3.23;1.20;;;9.60;99.90;;;8.92;89.60;98925.06;5013724;28;20227;-76
2023/04/01 03:09:04;;;;;;;3.33;1.33;;;9.50;99.90;;;8.91;90.00;98931.41;5014044;28;20242;-76
2023/04/01 03:11:35;;;;;;;2.07;1.20;;;9.50;99.90;;;8.89;90.08;98928.94;5013400;28;20585;-77
2023/04/01 03:14:07;;;;;;;4.17;1.20;;;9.50;99.90;;;8.90;89.76;98927.09;5013390;28;20640;-76
2023/04/01 03:16:39;;;;;;;4.37;1.40;;;9.50;99.90;;;8.90;89.84;98927.09;5013631;28;20231;-76
2023/04/01 03:19:11;;;;;;;2.67;1.33;;;9.50;99.90;;;8.90;89.74;98927.09;5013634;28;20209;-76
2023/04/01 03:21:43;;;;;;;3.80;1.40;;;9.50;99.90;;;8.90;89.61;98927.94;5013581;28;20225;-77
2023/04/01 03:24:16;;;;;;;2.97;1.23;;;9.60;99.90;;;8.90;89.71;98921.78;5013620;28;20214;-76
2023/04/01 03:26:48;;;;;;;3.70;1.43;;;9.50;99.90;;;8.88;90.61;98919.28;5013547;28;20231;-76
2023/04/01 03:29:20;;;;;;;4.27;1.37;;;9.50;99.90;;;8.88;90.32;98923.78;5013568;28;20188;-76
2023/04/01 03:31:51;;;;;;;4.33;1.50;;;9.50;99.90;;;8.88;90.36;98926.47;5013539;28;20207;-76
2023/04/01 03:34:24;;;;;;;3.60;1.23;;;9.50;99.90;;;8.87;90.02;98930.97;5013630;28;20664;-76
2023/04/01 03:36:55;;;;;;;2.27;1.50;;;9.50;99.90;;;8.86;90.52;98923.16;5016650;28;20235;-76
2023/04/01 03:39:29;;;;;;;2.10;1.20;;;9.50;99.90;;;8.85;90.72;98927.69;5017419;28;20215;-76
2023/04/01 03:42:00;;;;;;;3.40;1.50;;;9.50;99.90;;;8.84;90.55;98926.00;5017259;28;20222;-76
2023/04/01 03:44:34;;;;;;;4.30;1.47;;;9.50;99.90;;;8.83;90.96;98926.22;5017514;28;20199;-77
2023/04/01 03:47:08;;;;;;;2.73;1.37;;;9.40;99.90;;;8.83;90.55;98937.72;5017115;28;20227;-76
2023/04/01 03:49:40;;;;;;;4.37;1.60;;;9.50;99.90;;;8.82;90.63;98932.56;5017188;28;20239;-76
2023/04/01 03:52:14;;;;;;;3.97;1.40;;;9.40;99.90;;;8.81;91.04;98926.41;5016769;28;20550;-76
2023/04/01 03:54:47;;;;;;;2.97;1.53;;;9.40;99.90;;;8.81;91.05;98933.59;5017085;28;20191;-76
2023/04/01 03:57:19;;;;;;;3.43;1.97;;;9.40;99.90;;;8.81;90.90;98939.75;5016893;28;20234;-76
2023/04/01 03:59:50;;;;;;;3.83;1.70;;;9.50;99.90;;;8.81;91.34;98938.91;5016958;28;20191;-76
2023/04/01 04:02:22;;;;;;;2.47;1.60;;;9.40;99.90;;;8.80;90.90;98940.75;5016541;28;20582;-76
2023/04/01 04:04:54;;;;;;;4.60;1.90;;;9.40;99.90;;;8.79;90.92;98936.47;5016680;28;20226;-76
2023/04/01 04:07:26;;;;;;;3.80;1.57;;;9.40;99.90;;;8.78;91.27;98937.47;5016725;28;20345;-77
2023/04/01 04:09:59;;;;;;;2.80;1.70;;;9.40;99.90;;;8.79;90.68;98935.63;5016711;28;20196;-77
2023/04/01 04:12:31;;;;;;;3.40;1.77;;;9.40;99.90;;;8.79;91.21;98936.47;5017557;28;20184;-76
2023/04/01 04:15:03;;;;;;;6.03;2.50;;;9.40;99.90;;;8.77;90.91;98943.81;5016381;28;20652;-76
2023/04/01 04:17:35;;;;;;;2.57;2.10;;;9.40;99.90;;;8.77;90.99;98943.00;5016621;28;20211;-76
2023/04/01 04:20:10;;;;;;;3.33;1.97;;;9.40;99.90;;;8.77;91.32;98940.34;5016292;28;20283;-76
2023/04/01 04:22:41;;;;;;;4.00;2.40;;;9.40;99.90;;;8.78;91.03;98947.31;5016518;28;20628;-76
2023/04/01 04:25:15;;;;;;;5.07;2.97;;;9.40;99.90;;;8.76;90.87;98946.69;5016711;28;20198;-77
2023/04/01 04:27:46;;;;;;;5.93;3.20;;;9.40;99.90;;;8.75;91.04;98945.03;5016423;28;20199;-77
2023/04/01 04:30:18;;;;;;;8.17;3.60;;;9.40;99.90;;;8.74;91.56;98946.88;5016358;28;20195;-76
2023/04/01 04:32:50;;;;;;;7.03;4.03;;;9.40;99.90;;;8.73;91.37;98955.09;5016052;28;20558;-76
2023/04/01 04:35:22;;;;;;;8.87;5.00;;;9.40;99.90;;;8.75;91.16;98950.38;5016192;28;20198;-76
2023/04/01 04:37:54;;;;;;;11.63;7.00;;;9.40;99.90;;;8.74;91.21;98959.38;5015902;28;20554;-76
2023/04/01 04:40:27;;;;;;;12.63;6.97;;;9.40;99.90;;;8.73;91.26;98953.25;5015889;28;20242;-76
2023/04/01 04:42:59;;;;;;;8.73;6.23;;;9.40;99.90;;;8.74;91.18;98954.03;5016128;28;20212;-76
2023/04/01 04:45:32;;;;;;;10.23;5.03;;;9.40;99.90;;;8.73;91.38;98958.59;5016212;28;20234;-76
2023/04/01 04:48:04;;;;;;;8.20;4.27;;;9.40;99.90;;;8.73;91.29;98965.75;5014747;28;20215;-76
2023/04/01 04:50:36;;;;;;;5.07;2.90;;;9.40;99.90;;;8.72;91.32;98962.25;5015724;28;20246;-76
2023/04/01 04:53:10;;;;;;;5.30;2.27;;;9.30;99.90;;;8.71;91.57;98959.75;5015693;28;20535;-76
2023/04/01 04:55:46;;;;;;;5.80;2.50;;;9.30;99.90;;;8.71;91.70;98959.75;5015863;28;20227;-76
2023/04/01 04:58:19;;;;;;;4.17;2.27;;;9.30;99.90;;;8.70;91.34;98968.81;5015843;28;20191;-76
2023/04/01 05:00:51;;;;;;;6.10;2.20;;;9.40;99.90;;;8.70;91.53;98963.47;5015844;28;20192;-76
2023/04/01 05:03:23;;;;;;;4.30;2.00;;;9.30;99.90;;;8.69;91.51;98964.47;5015493;28;20200;-76
2023/04/01 05:05:56;;;;;;;6.63;1.97;;;9.30;99.90;;;8.69;91.86;98967.16;5015518;28;20243;-76
2023/04/01 05:08:28;;;;;;;3.73;2.13;;;9.30;99.90;;;8.69;91.63;98967.16;5015375;28;20187;-76
2023/04/01 05:11:02;;;;;;;3.97;2.23;;;9.30;99.90;;;8.69;91.89;98969.81;5015350;28;20234;-76
2023/04/01 05:13:34;;;;;;;3.33;2.57;;;9.30;99.90;;;8.67;91.99;98978.00;5015617;28;20286;-76
2023/04/01 05:16:08;;;;;;;4.50;1.90;;;9.30;99.90;;;8.68;91.81;98968.16;5015411;28;20223;-76
2023/04/01 05:18:43;;;;;;;3.87;2.00;;;9.30;99.90;;;8.66;91.95;98969.16;5015718;28;20223;-76
2023/04/01 05:21:16;;;;;;;5.00;2.27;;;9.30;99.90;;;8.69;91.71;98975.16;5015351;28;20231;-76
2023/04/01 05:23:48;;;;;;;5.73;2.40;;;9.30;99.90;;;8.68;91.91;98982.31;5015423;28;20270;-76
2023/04/01 05:26:22;;;;;;;4.67;2.40;;;9.30;99.90;;;8.65;91.48;98978.22;5015276;28;20231;-76
2023/04/01 05:28:54;;;;;;;5.33;2.50;;;9.30;99.90;;;8.67;91.81;98975.34;5015279;28;20226;-76
2023/04/01 05:31:26;;;;;;;6.07;2.47;;;9.30;99.90;;;8.68;91.37;98976.16;5014875;28;20199;-76
2023/04/01 05:33:58;;;;;;;4.53;2.60;;;9.30;99.90;;;8.68;91.11;98982.31;5015442;28;20192;-76
2023/04/01 05:36:30;;;;;;;6.73;2.70;;;9.30;99.90;;;8.69;91.15;98983.16;5015315;28;20266;-76
2023/04/01 05:39:03;;;;;;;5.63;2.50;;;9.30;99.90;;;8.68;91.26;98978.81;5015109;28;20335;-76
2023/04/01 05:41:38;;;;;;;4.47;2.40;;;9.30;99.90;;;8.69;91.29;98983.16;5014976;28;20192;-76
2023/04/01 05:44:14;;;;;;;4.20;2.40;;;9.30;99.90;;;8.70;91.26;98990.16;5014987;28;20290;-76
2023/04/01 05:46:46;;;;;;;3.07;2.47;;;9.30;99.90;;;8.71;91.58;98986.44;5014558;28;20658;-76
2023/04/01 05:49:18;;;;;;;4.00;2.40;;;9.30;99.90;;;8.71;91.43;98991.78;5014904;28;20213;-76
2023/04/01 05:51:51;;;;;;;4.53;2.30;;;9.30;99.90;;;8.71;91.36;98986.44;5014926;28;20223;-76
2023/04/01 05:54:23;;;;;;;5.10;2.27;;;9.40;99.90;;;8.71;91.45;98992.63;5014841;28;20257;-76
2023/04/01 05:56:56;;;;;;;3.70;2.30;;;9.40;99.90;;;8.73;91.78;98992.44;5014391;28;20712;-77
2023/04/01 05:59:30;;;;;;;3.43;2.00;;;9.40;99.90;;;8.73;91.24;98995.09;5014070;28;20657;-76
2023/04/01 06:02:03;;;;;;;4.77;2.20;;;9.40;99.90;;;8.76;90.94;98994.72;5014631;28;20243;-76
2023/04/01 06:04:41;;;;;;;4.87;2.40;;;9.40;99.90;;;8.79;91.58;98999.66;5014724;28;20306;-76
2023/04/01 06:07:19;;;;;;;4.40;2.20;;;9.50;99.90;;;8.79;91.87;98997.84;5014490;28;20227;-76
2023/04/01 06:09:51;;;;;;;5.17;2.20;;;9.50;99.90;;;8.80;91.95;98998.66;5014564;28;20226;-76
2023/04/01 06:12:42;;;;;;;5.47;2.37;;;9.50;99.90;;;8.83;92.08;99000.94;5014502;28;20191;-76
2023/04/01 06:15:35;;;;;;;4.17;2.23;;;9.50;99.90;;;8.83;91.84;99006.28;5014372;28;20187;-76
2023/04/01 06:18:46;;;;;;;4.77;2.20;;;9.50;99.90;;;8.85;91.83;99002.41;5014393;28;20187;-76
2023/04/01 06:21:48;;;;;;;4.53;2.23;;;9.50;99.90;;;8.85;92.23;99005.06;5012997;28;20210;-76
2023/04/01 06:24:52;;;;;;;3.40;2.00;;;9.50;99.90;;;8.87;91.97;99008.34;5014271;28;20233;-76
2023/04/01 06:27:44;;;;;;;2.53;2.03;;;9.50;99.90;;;8.89;92.06;99011.69;5014377;28;20317;-76
2023/04/01 06:30:43;;;;;;;4.63;2.30;;;9.60;99.90;;;8.93;92.11;99017.47;5014174;28;20261;-76
2023/04/01 06:33:51;;;;;;;4.13;2.10;;;9.60;99.90;;;8.93;91.74;99018.28;5013879;28;20674;-76
2023/04/01 06:36:41;;;;;;;4.53;2.53;;;9.60;99.90;;;8.97;92.44;99024.06;5014016;28;20231;-76
2023/04/01 06:39:44;;;;;;;4.73;2.57;;;9.60;99.90;;;8.98;92.52;99025.69;5014057;28;20233;-76
2023/04/01 06:42:34;;;;;;;5.40;2.60;;;9.70;99.90;;;9.01;92.53;99025.31;5013975;28;20230;-76
2023/04/01 06:45:25;;;;;;;5.07;2.47;;;9.70;99.90;;;9.05;92.17;99031.94;5014041;28;20202;-76
2023/04/01 06:48:15;;;;;;;4.17;2.17;;;9.70;99.90;;;9.07;92.44;99027.25;5014030;28;20249;-76
2023/04/01 06:50:56;;;;;;;6.60;2.47;;;9.80;99.90;;;9.11;92.80;99025.81;5013948;28;20199;-77
2023/04/01 06:53:43;;;;;;;4.63;2.47;;;9.80;99.90;;;9.15;92.29;99029.75;5013635;28;20635;-76
2023/04/01 06:56:18;;;;;;;5.67;3.10;;;9.80;99.90;;;9.16;92.52;99026.06;5013829;28;20234;-76
2023/04/01 06:58:56;;;;;;;6.23;2.23;;;9.80;99.90;;;9.20;92.49;99034.53;5013818;28;20195;-76
2023/04/01 07:01:36;;;;;;;5.23;2.23;;;9.90;99.90;;;9.21;92.43;99031.69;5013868;28;20198;-76
2023/04/01 07:04:17;;;;;;;4.37;2.70;;;9.90;99.90;;;9.24;92.52;99035.78;5013273;28;20691;-76
2023/04/01 07:06:54;;;;;;;3.93;2.50;;;9.90;99.90;;;9.28;92.16;99037.88;5013712;28;20231;-76
2023/04/01 07:09:37;;;;;;;5.50;2.50;;;10.00;99.90;;;9.29;92.19;99039.53;5014047;28;20203;-76
2023/04/01 07:12:19;;;;;;;4.20;2.30;;;10.00;99.90;;;9.31;91.88;99036.69;5017596;28;20187;-76
2023/04/01 07:14:56;;;;;;;3.93;2.20;;;10.00;99.90;;;9.34;91.77;99047.81;5017823;28;20187;-76
2023/04/01 07:17:34;;;;;;;5.30;2.27;;;10.10;99.90;;;9.38;92.44;99042.91;5017653;28;20223;-77
2023/04/01 07:20:16;;;;;;;3.17;1.80;;;10.10;99.90;;;9.41;92.05;99043.34;5017377;28;20187;-77
2023/04/01 07:22:52;;;;;;;6.83;2.10;;;10.10;99.90;;;9.43;92.48;99049.31;5017580;28;20211;-77
2023/04/01 07:25:29;;;;;;;4.50;1.90;;;10.10;99.90;;;9.44;92.00;99053.63;5017521;28;20195;-77
2023/04/01 07:28:05;;;;;;;3.70;1.80;;;10.10;99.90;;;9.47;91.99;99053.25;5018334;28;20187;-77
2023/04/01 07:30:53;;;;;;;4.33;1.63;;;10.20;99.90;;;9.50;91.97;99058.19;5017522;28;20199;-77
2023/04/01 07:33:34;;;;;;;4.17;2.10;;;10.20;99.90;;;9.52;92.12;99061.47;5017172;28;20651;-77
2023/04/01 07:36:14;;;;;;;6.03;2.13;;;10.20;99.90;;;9.56;92.01;99061.91;5017369;28;20230;-77
2023/04/01 07:39:03;;;;;;;3.53;1.77;;;10.30;99.90;;;9.57;91.89;99075.09;5017367;28;20231;-77
2023/04/01 07:41:46;;;;;;;5.43;2.23;;;10.30;99.90;;;9.60;92.04;99065.84;5016984;28;20695;-77
2023/04/01 07:44:26;;;;;;;3.57;1.67;;;10.30;99.90;;;9.60;91.47;99082.72;5017148;28;20219;-77
2023/04/01 07:47:13;;;;;;;6.20;2.03;;;10.30;99.90;;;9.65;91.78;99082.97;5017369;28;20227;-77
2023/04/01 07:49:57;;;;;;;5.20;2.00;;;10.30;99.90;;;9.67;92.23;99083.59;5016931;28;20295;-77
2023/04/01 07:52:37;;;;;;;4.73;1.50;;;10.40;99.90;;;9.72;92.06;99083.03;5017194;28;20293;-77
2023/04/01 07:55:21;;;;;;;2.80;1.77;;;10.40;99.90;;;9.75;92.13;99087.97;5016975;28;20195;-77
2023/04/01 07:58:01;;;;;;;5.70;1.80;;;10.40;99.90;;;9.77;91.97;99095.78;5016746;28;20667;-77
2023/04/01 08:00:41;;;;;;;3.63;1.93;;;10.40;99.90;;;9.79;91.49;99088.41;5016965;28;20187;-77
2023/04/01 08:03:37;;;;;;;4.47;1.83;;;10.50;99.90;;;9.85;92.12;99101.00;5016560;28;20217;-76
2023/04/01 08:06:19;;;;;;;3.27;2.03;;;10.50;99.90;;;9.88;91.66;99097.91;5016619;28;20235;-77
2023/04/01 08:09:02;;;;;;;2.73;1.60;;;10.50;99.90;;;9.90;90.91;99102.03;5016482;28;20538;-76
2023/04/01 08:11:48;;;;;;;3.60;1.70;;;10.60;99.90;;;9.94;90.99;99102.47;5016757;28;20192;-76
2023/04/01 08:14:32;;;;;;;3.53;1.70;;;10.60;99.90;;;9.98;90.71;99099.22;5016414;28;20554;-76
2023/04/01 08:17:13;;;;;;;2.50;1.40;;;10.70;99.90;;;10.02;89.85;99096.97;5016579;28;20235;-76
2023/04/01 08:20:04;;;;;;;4.40;1.70;;;10.70;99.90;;;10.09;90.90;99105.88;5016303;28;20692;-76
2023/04/01 08:22:46;;;;;;;4.17;1.73;;;10.80;99.90;;;10.12;90.39;99105.47;5016146;28;20240;-76
2023/04/01 08:25:25;;;;;;;2.77;1.40;;;10.80;99.90;;;10.21;90.64;99115.00;5016439;28;20200;-77
2023/04/01 08:28:05;;;;;;;3.33;1.50;;;10.90;99.90;;;10.27;90.65;99108.91;5016749;28;20199;-77
2023/04/01 08:30:46;;;;;;;2.57;1.40;;;11.00;99.90;;;10.36;89.67;99113.06;5016388;28;20198;-76
2023/04/01 08:33:24;;;;;;;2.40;1.47;;;11.00;99.90;;;10.38;89.60;99113.66;5016406;28;20183;-76
2023/04/01 08:36:02;;;;;;;3.07;1.30;;;11.10;99.90;;;10.45;88.90;99122.56;5016248;28;20230;-76
2023/04/01 08:38:41;;;;;;;2.87;1.40;;;11.10;99.90;;;10.51;89.17;99121.75;5016199;28;20224;-76
2023/04/01 08:41:52;;;;;;;3.10;1.43;;;11.20;99.90;;;10.61;88.85;99116.88;5016241;28;20199;-76
2023/04/01 08:45:07;;;;;;;4.40;1.53;;;11.30;99.90;;;10.68;88.51;99120.38;5016088;28;20223;-76
2023/04/01 08:48:08;;;;;;;2.47;1.40;;;11.40;99.90;;;10.74;87.16;99120.63;4961227;28;20214;-77
2023/04/01 08:51:10;;;;;;;4.23;1.43;;;11.40;99.90;;;10.79;86.86;99128.88;5015943;28;20210;-77
2023/04/01 08:54:12;;;;;;;2.63;1.10;;;11.40;99.90;;;10.77;87.07;99121.03;5015998;28;20208;-77
2023/04/01 08:56:58;;;;;;;2.93;1.33;;;11.40;99.90;;;10.75;86.10;99128.47;5016002;28;20227;-77
2023/04/01 08:59:51;;;;;;;2.83;1.20;;;11.40;99.90;;;10.80;86.57;99127.84;5015875;28;20216;-77
2023/04/01 09:02:57;;;;;;;2.33;1.37;;;11.50;99.90;;;10.86;87.39;99127.03;5015806;28;20196;-77
2023/04/01 09:06:13;;;;;;;4.00;1.90;;;11.50;99.90;;;10.91;87.99;99122.75;5015371;28;20286;-77
2023/04/01 09:09:10;;;;;;;4.73;1.57;;;11.50;99.90;;;10.95;87.42;99120.47;5015433;28;20195;-77
2023/04/01 09:12:19;;;;;;;1.80;1.30;;;11.60;99.90;;;11.04;86.00;99127.28;5015615;28;20217;-77
2023/04/01 09:15:33;;;;;;;2.53;1.27;;;11.70;99.90;;;11.14;85.18;99130.41;5015841;28;20188;-77
2023/04/01 09:18:48;;;;;;;2.97;1.23;;;11.80;99.90;;;11.23;84.22;99133.75;5015569;28;20191;-77
2023/04/01 09:21:32;;;;;;;3.53;1.20;;;11.90;99.90;;;11.27;85.20;99138.47;5006719;28;20294;-77
2023/04/01 09:24:34;;;;;;;1.40;1.10;;;12.00;99.90;;;11.32;83.68;99138.69;5015301;28;20219;-77
2023/04/01 09:27:23;;;;;;;2.83;1.30;;;12.00;99.90;;;11.35;84.06;99145.50;5014944;28;20573;-77
2023/04/01 09:30:34;;;;;;;3.17;1.50;;;12.00;99.90;;;11.36;84.67;99147.97;5015407;28;20192;-77
2023/04/01 09:34:01;;;;;;;2.33;1.47;;;12.00;99.90;;;11.34;82.68;99150.03;5014687;28;20203;-77
2023/04/01 09:36:56;;;;;;;1.90;1.13;;;12.00;99.90;;;11.35;83.08;99153.53;5010083;28;20243;-77
2023/04/01 09:39:50;;;;;;;2.37;1.50;;;12.00;99.90;;;11.35;82.84;99151.69;5015126;28;20191;-77
2023/04/01 09:42:50;;;;;;;3.07;1.43;;;12.00;99.90;;;11.35;82.82;99157.03;5015058;28;20195;-77
2023/04/01 09:45:38;;;;;;;1.53;1.30;;;12.00;99.90;;;11.40;82.51;99159.94;5014829;28;20235;-77
2023/04/01 09:48:35;;;;;;;3.17;1.33;;;12.00;99.90;;;11.42;81.06;99157.88;5014930;28;20200;-77
2023/04/01 09:51:24;;;;;;;2.90;1.40;;;12.10;99.90;;;11.46;81.30;99166.34;5002536;28;20204;-77
2023/04/01 09:54:12;;;;;;;1.83;1.50;;;12.10;99.90;;;11.48;81.14;99162.41;5014881;28;20192;-77
2023/04/01 09:57:43;;;;;;;1.80;1.33;;;12.10;99.90;;;11.48;80.70;99162.41;5014790;28;20232;-77
2023/04/01 10:01:04;;;;;;;2.10;1.40;;;12.10;99.90;;;11.51;81.12;99172.72;5014805;28;20207;-77
2023/04/01 10:04:25;;;;;;;3.40;1.27;;;12.20;99.90;;;11.51;80.87;99170.03;5014579;28;20212;-77
2023/04/01 10:07:35;;;;;;;2.10;1.00;;;12.10;99.90;;;11.51;81.83;99175.41;5009682;28;20234;-77
2023/04/01 10:10:40;;;;;;;1.50;1.03;;;12.10;99.90;;;11.51;81.82;99183.44;5014594;28;20238;-77
2023/04/01 10:14:12;;;;;;;1.50;1.00;;;12.20;99.90;;;11.47;80.55;99184.06;5014160;28;20195;-77
2023/04/01 10:17:33;;;;;;;2.67;1.30;;;12.10;99.90;;;11.43;80.23;99196.22;5014058;28;20234;-77
2023/04/01 10:20:22;;;;;;;2.03;0.93;;;12.00;99.90;;;11.42;80.93;99187.34;5014071;28;20215;-77
2023/04/01 10:23:41;;;;;;;2.50;1.00;;;12.00;99.90;;;11.39;79.78;99193.13;5014415;28;20199;-77
2023/04/01 10:26:57;;;;;;;2.03;0.97;;;12.00;99.90;;;11.37;79.78;99184.44;5008503;28;20231;-77
2023/04/01 10:30:28;;;;;;;1.47;1.10;;;11.90;99.90;;;11.37;80.85;99195.16;5009224;28;20695;-77
2023/04/01 10:33:55;;;;;;;4.40;1.40;;;12.00;99.90;;;11.37;81.17;99195.16;4991784;28;20215;-77
2023/04/01 10:36:51;;;;;;;2.57;1.17;;;12.00;99.90;;;11.37;82.25;99195.16;4967975;28;20234;-77
2023/04/01 10:40:25;;;;;;;2.37;1.20;;;12.00;99.90;;;11.37;82.09;99197.84;5014097;28;20196;-77
2023/04/01 10:43:41;;;;;;;2.63;1.53;;;12.00;99.90;;;11.39;82.49;99201.16;4972895;28;20292;-77
2023/04/01 10:47:03;;;;;;;5.73;2.13;;;12.00;99.90;;;11.36;81.56;99196.22;5013898;28;20227;-77
2023/04/01 10:49:52;;;;;;;2.47;1.40;;;12.00;99.90;;;11.39;81.71;99195.81;5013996;28;20207;-77
2023/04/01 10:53:16;;;;;;;1.77;1.30;;;12.00;99.90;;;11.43;81.11;99202.41;5013960;28;20195;-77
2023/04/01 10:56:25;;;;;;;1.97;1.10;;;12.00;99.90;;;11.47;80.46;99206.31;5009084;28;20223;-77
2023/04/01 10:59:36;;;;;;;1.40;1.20;;;12.10;99.90;;;11.51;80.19;99207.56;5014076;28;20211;-76
2023/04/01 11:02:55;;;;;;;1.13;1.03;;;12.10;99.90;;;11.52;80.78;99205.72;5013842;28;20202;-77
2023/04/01 11:06:32;;;;;;;1.90;1.10;;;12.10;99.90;;;11.53;79.74;99207.38;5007291;28;20318;-77
2023/04/01 11:09:49;;;;;;;2.10;1.10;;;12.10;99.90;;;11.57;80.36;99214.81;5013745;28;20207;-77
2023/04/01 11:13:01;;;;;;;1.83;0.90;;;12.10;99.90;;;11.56;80.26;99210.47;5013425;28;20191;-77
2023/04/01 11:15:58;;;;;;;2.43;1.10;;;12.20;99.90;;;11.57;79.43;99219.34;5013361;28;20703;-77
2023/04/01 11:19:33;;;;;;;1.90;1.37;;;12.20;99.90;;;11.63;80.34;99224.72;5013634;28;20211;-77
2023/04/01 11:22:30;;;;;;;2.27;0.93;;;12.20;99.90;;;11.67;80.34;99227.81;5013339;28;20563;-77
2023/04/01 11:25:51;;;;;;;3.77;1.30;;;12.30;99.90;;;11.66;80.13;99235.03;5013597;28;20222;-77
2023/04/01 11:28:51;;;;;;;1.67;1.00;;;12.30;99.90;;;11.60;78.68;99235.84;5013592;28;20215;-77
2023/04/01 11:31:44;;;;;;;1.63;1.00;;;12.20;99.90;;;11.66;80.07;99239.56;5011425;28;20211;-77
2023/04/01 11:34:46;;;;;;;1.70;0.90;;;12.30;99.90;;;11.68;80.87;99238.31;5013641;28;20196;-77
2023/04/01 11:37:34;;;;;;;1.17;1.07;;;12.30;99.90;;;11.70;79.81;99240.81;5013423;28;20230;-76
2023/04/01 11:40:23;;;;;;;3.17;1.40;;;12.30;99.90;;;11.69;80.07;99242.66;5013507;28;20246;-76